createdAt,value
2019-06-15T00:02:02.406Z,20.67
2019-06-15T00:04:33.008Z,19.23
2019-06-15T00:07:03.914Z,20.37
2019-06-15T00:09:34.603Z,20.20
2019-06-15T00:12:05.084Z,21.30
2019-06-15T00:14:35.511Z,20.93
2019-06-15T00:17:06.161Z,21.60
2019-06-15T00:19:36.773Z,20.47
2019-06-15T00:22:07.548Z,21.40
2019-06-15T00:24:38.084Z,20.17
2019-06-15T00:27:08.460Z,20.57
2019-06-15T00:29:38.950Z,20.60
2019-06-15T00:32:09.417Z,20.90
2019-06-15T00:34:39.973Z,21.10
2019-06-15T00:37:10.435Z,22.13
2019-06-15T00:39:40.185Z,20.40
2019-06-15T00:42:10.481Z,22.07
2019-06-15T00:44:40.219Z,20.13
2019-06-15T00:47:10.871Z,21.40
2019-06-15T00:49:41.184Z,21.40
2019-06-15T00:52:11.363Z,21.00
2019-06-15T00:54:49.891Z,20.37
2019-06-15T00:57:11.775Z,21.60
2019-06-15T00:59:42.134Z,21.17
2019-06-15T01:02:12.590Z,19.83
2019-06-15T01:04:42.980Z,20.37
2019-06-15T01:07:13.544Z,19.33
2019-06-15T01:09:44.097Z,20.73
2019-06-15T01:12:14.626Z,19.80
2019-06-15T01:14:45.132Z,21.27
2019-06-15T01:17:15.732Z,20.30
2019-06-15T01:19:46.325Z,19.67
2019-06-15T01:22:16.861Z,20.87
2019-06-15T01:24:47.356Z,20.60
2019-06-15T01:27:17.981Z,20.23
2019-06-15T01:29:48.409Z,19.67
2019-06-15T01:32:18.695Z,20.13
2019-06-15T01:34:49.170Z,22.17
2019-06-15T01:37:19.429Z,19.00
2019-06-15T01:39:50.257Z,20.27
2019-06-15T01:42:20.867Z,20.07
2019-06-15T01:44:51.388Z,20.33
2019-06-15T01:47:22.029Z,18.43
2019-06-15T01:49:52.659Z,18.53
2019-06-15T01:52:23.164Z,21.30
2019-06-15T01:54:53.596Z,18.60
2019-06-15T01:57:24.133Z,17.33
2019-06-15T01:59:54.762Z,18.67
2019-06-15T02:02:25.160Z,19.07
2019-06-15T02:04:55.762Z,18.63
2019-06-15T02:07:26.208Z,18.80
2019-06-15T02:09:56.777Z,19.10
2019-06-15T02:12:27.298Z,19.83
2019-06-15T02:14:57.827Z,19.00
2019-06-15T02:17:28.252Z,18.90
2019-06-15T02:19:58.783Z,19.87
2019-06-15T02:22:29.281Z,18.17
2019-06-15T02:24:59.883Z,18.67
2019-06-15T02:27:30.228Z,20.80
2019-06-15T02:30:00.771Z,19.33
2019-06-15T02:32:31.079Z,20.73
2019-06-15T02:35:01.585Z,19.73
2019-06-15T02:37:32.105Z,20.23
2019-06-15T02:40:02.587Z,18.77
2019-06-15T02:42:33.414Z,19.50
2019-06-15T02:45:04.029Z,19.10
2019-06-15T02:47:34.582Z,18.47
2019-06-15T02:50:05.528Z,19.23
2019-06-15T02:52:36.223Z,20.70
2019-06-15T02:55:07.108Z,20.50
2019-06-15T02:57:37.712Z,17.67
2019-06-15T03:00:07.826Z,20.20
2019-06-15T03:02:38.285Z,23.23
2019-06-15T03:05:08.965Z,18.93
2019-06-15T03:07:39.774Z,19.30
2019-06-15T03:10:10.474Z,21.97
2019-06-15T03:12:41.136Z,19.20
2019-06-15T03:15:11.856Z,22.47
2019-06-15T03:17:43.160Z,20.90
2019-06-15T03:20:13.743Z,19.77
2019-06-15T03:22:44.106Z,19.80
2019-06-15T03:25:14.804Z,20.43
2019-06-15T03:27:45.205Z,18.80
2019-06-15T03:30:15.732Z,20.27
2019-06-15T03:32:46.171Z,19.47
2019-06-15T03:35:16.794Z,19.07
2019-06-15T03:37:47.097Z,18.63
2019-06-15T03:40:17.788Z,21.20
2019-06-15T03:42:48.345Z,19.10
2019-06-15T03:45:18.889Z,17.63
2019-06-15T03:47:49.412Z,22.07
2019-06-15T03:50:19.990Z,19.33
2019-06-15T03:52:50.498Z,18.90
2019-06-15T03:55:21.151Z,19.30
2019-06-15T03:57:51.453Z,19.43
2019-06-15T04:00:37.823Z,19.20
2019-06-15T04:03:08.240Z,19.97
2019-06-15T04:05:38.765Z,18.77
2019-06-15T04:08:09.304Z,22.30
2019-06-15T04:10:39.780Z,19.80
2019-06-15T04:13:10.299Z,20.17
2019-06-15T04:15:40.853Z,19.57
2019-06-15T04:18:11.196Z,20.67
2019-06-15T04:20:41.835Z,19.97
2019-06-15T04:23:12.361Z,19.73
2019-06-15T04:25:44.365Z,22.90
2019-06-15T04:28:13.476Z,21.53
2019-06-15T04:30:44.489Z,19.40
2019-06-15T04:33:14.874Z,19.37
2019-06-15T04:35:45.390Z,19.60
2019-06-15T04:38:16.009Z,22.40
2019-06-15T04:40:46.866Z,19.23
2019-06-15T04:43:17.234Z,23.00
2019-06-15T04:45:47.797Z,19.57
2019-06-15T04:48:18.385Z,21.97
2019-06-15T04:50:48.906Z,20.23
2019-06-15T04:53:19.243Z,22.23
2019-06-15T04:55:49.809Z,21.30
2019-06-15T04:58:20.296Z,22.30
2019-06-15T05:00:50.893Z,20.17
2019-06-15T05:03:21.417Z,20.10
2019-06-15T05:05:52.319Z,20.90
2019-06-15T05:08:22.757Z,20.07
2019-06-15T05:10:59.480Z,21.43
2019-06-15T05:13:23.200Z,20.10
2019-06-15T05:15:53.553Z,22.63
2019-06-15T05:18:24.052Z,24.07
2019-06-15T05:20:54.501Z,22.83
2019-06-15T05:23:25.013Z,20.33
2019-06-15T05:25:55.436Z,20.43
2019-06-15T05:28:26.113Z,21.33
2019-06-15T05:30:56.748Z,19.33
2019-06-15T05:33:27.356Z,21.27
2019-06-15T05:35:57.802Z,21.10
2019-06-15T05:38:28.124Z,18.97
2019-06-15T05:40:59.049Z,18.87
2019-06-15T05:43:29.517Z,20.03
2019-06-15T05:45:59.998Z,19.00
2019-06-15T05:48:30.421Z,19.33
2019-06-15T05:51:00.904Z,18.87
2019-06-15T05:53:31.324Z,21.97
2019-06-15T05:56:01.888Z,18.67
2019-06-15T05:58:32.329Z,18.57
2019-06-15T06:01:02.914Z,18.90
2019-06-15T06:03:33.277Z,18.27
2019-06-15T06:06:04.457Z,17.43
2019-06-15T06:08:34.810Z,18.10
2019-06-15T06:11:05.373Z,19.10
2019-06-15T06:13:35.913Z,18.33
2019-06-15T06:16:06.481Z,19.30
2019-06-15T06:18:36.237Z,22.40
2019-06-15T06:21:06.628Z,18.77
2019-06-15T06:23:37.345Z,19.40
2019-06-15T06:26:07.624Z,18.50
2019-06-15T06:28:38.277Z,17.67
2019-06-15T06:31:08.705Z,17.77
2019-06-15T06:33:39.251Z,18.10
2019-06-15T06:36:09.600Z,17.73
2019-06-15T06:38:39.343Z,17.30
2019-06-15T06:41:09.584Z,17.73
2019-06-15T06:43:40.121Z,17.47
2019-06-15T06:46:10.593Z,19.00
2019-06-15T06:48:41.098Z,20.43
2019-06-15T06:51:11.550Z,17.97
2019-06-15T06:53:42.005Z,17.90
2019-06-15T06:56:12.508Z,19.77
2019-06-15T06:58:43.088Z,18.87
2019-06-15T07:01:13.693Z,19.57
2019-06-15T07:03:44.120Z,17.20
2019-06-15T07:06:14.601Z,17.93
2019-06-15T07:08:47.951Z,23.13
2019-06-15T07:11:15.907Z,18.30
2019-06-15T07:13:46.576Z,17.37
2019-06-15T07:16:16.932Z,19.80
2019-06-15T07:18:47.439Z,19.20
2019-06-15T07:21:17.830Z,20.50
2019-06-15T07:23:48.259Z,16.90
2019-06-15T07:26:18.992Z,22.10
2019-06-15T07:28:49.778Z,19.50
2019-06-15T07:31:20.120Z,18.23
2019-06-15T07:33:50.582Z,17.83
2019-06-15T07:36:21.069Z,18.63
2019-06-15T07:38:51.545Z,19.90
2019-06-15T07:41:22.053Z,21.10
2019-06-15T07:43:52.458Z,17.40
2019-06-15T07:46:22.776Z,24.87
2019-06-15T07:48:54.581Z,19.30
2019-06-15T07:51:26.173Z,17.30
2019-06-15T07:53:57.163Z,20.68
2019-06-15T07:56:27.788Z,17.00
2019-06-15T07:58:58.312Z,21.20
2019-06-15T08:01:28.873Z,17.70
2019-06-15T08:03:59.469Z,19.17
2019-06-15T08:06:29.876Z,19.33
2019-06-15T08:09:00.343Z,19.60
2019-06-15T08:11:30.825Z,18.30
2019-06-15T08:14:01.304Z,18.12
2019-06-15T08:16:31.788Z,18.62
2019-06-15T08:19:01.658Z,20.80
2019-06-15T08:21:32.448Z,20.40
2019-06-15T08:24:04.894Z,16.90
2019-06-15T08:26:33.598Z,21.05
2019-06-15T08:29:04.177Z,16.37
2019-06-15T08:31:34.662Z,17.00
2019-06-15T08:34:05.249Z,21.57
2019-06-15T08:36:35.841Z,19.03
2019-06-15T08:39:06.809Z,17.43
2019-06-15T08:41:37.412Z,18.70
2019-06-15T08:44:08.001Z,17.20
2019-06-15T08:46:38.451Z,16.20
2019-06-15T08:49:08.843Z,19.62
2019-06-15T08:51:39.430Z,18.48
2019-06-15T08:54:09.980Z,15.25
2019-06-15T08:56:40.459Z,18.85
2019-06-15T08:59:10.255Z,16.42
2019-06-15T09:01:41.029Z,18.77
2019-06-15T09:04:11.398Z,20.95
2019-06-15T09:06:41.881Z,17.45
2019-06-15T09:09:15.824Z,22.37
2019-06-15T09:11:43.863Z,16.93
2019-06-15T09:14:14.341Z,15.20
2019-06-15T09:16:44.745Z,13.95
2019-06-15T09:19:15.469Z,15.53
2019-06-15T09:21:46.993Z,15.72
2019-06-15T09:24:17.637Z,15.98
2019-06-15T09:26:48.161Z,18.45
2019-06-15T09:29:18.556Z,15.18
2019-06-15T09:31:48.505Z,17.42
2019-06-15T09:34:19.561Z,15.70
2019-06-15T09:36:49.309Z,14.73
2019-06-15T09:39:19.853Z,16.95
2019-06-15T09:41:50.638Z,18.95
2019-06-15T09:44:21.272Z,18.92
2019-06-15T09:46:51.809Z,19.45
2019-06-15T09:49:22.252Z,18.02
2019-06-15T09:51:52.839Z,23.83
2019-06-15T09:54:23.632Z,15.15
2019-06-15T09:56:53.852Z,15.00
2019-06-15T09:59:26.346Z,14.70
2019-06-15T10:01:54.000Z,18.95
2019-06-15T10:04:24.494Z,19.50
2019-06-15T10:06:54.952Z,13.70
2019-06-15T10:09:25.656Z,16.80
2019-06-15T10:11:55.840Z,10.45
2019-06-15T10:14:26.319Z,15.45
2019-06-15T10:16:56.836Z,12.35
2019-06-15T10:19:27.453Z,17.23
2019-06-15T10:21:58.009Z,15.13
2019-06-15T10:24:28.458Z,16.82
2019-06-15T10:26:58.897Z,16.50
2019-06-15T10:29:41.545Z,14.18
2019-06-15T10:31:59.971Z,12.50
2019-06-15T10:34:30.387Z,16.05
2019-06-15T10:37:00.932Z,14.00
2019-06-15T10:39:31.573Z,14.05
2019-06-15T10:42:02.091Z,14.83
2019-06-15T10:44:32.784Z,11.40
2019-06-15T10:47:02.614Z,14.68
2019-06-15T10:49:33.092Z,14.65
2019-06-15T10:52:03.622Z,10.28
2019-06-15T10:54:34.267Z,17.10
2019-06-15T10:57:04.306Z,14.28
2019-06-15T10:59:34.677Z,12.20
2019-06-15T11:02:05.108Z,13.98
2019-06-15T11:04:35.737Z,13.15
2019-06-15T11:07:06.507Z,11.95
2019-06-15T11:09:37.031Z,14.45
2019-06-15T11:12:07.623Z,15.55
2019-06-15T11:14:38.270Z,14.03
2019-06-15T11:17:08.964Z,14.58
2019-06-15T11:19:39.437Z,18.55
2019-06-15T11:22:09.849Z,14.43
2019-06-15T11:24:40.551Z,11.08
2019-06-15T11:27:11.118Z,15.45
2019-06-15T11:29:41.653Z,16.17
2019-06-15T11:32:12.351Z,10.48
2019-06-15T11:34:42.862Z,11.55
2019-06-15T11:37:12.658Z,14.03
2019-06-15T11:39:42.969Z,9.83
2019-06-15T11:42:12.898Z,10.95
2019-06-15T11:44:43.409Z,12.25
2019-06-15T11:47:13.257Z,12.60
2019-06-15T11:49:43.842Z,11.10
2019-06-15T11:52:14.091Z,11.33
2019-06-15T11:54:43.922Z,12.37
2019-06-15T11:57:15.448Z,13.58
2019-06-15T11:59:45.923Z,10.28
2019-06-15T12:02:16.474Z,9.55
2019-06-15T12:04:58.046Z,11.33
2019-06-15T12:07:17.280Z,12.10
2019-06-15T12:09:47.570Z,11.90
2019-06-15T12:12:21.589Z,11.85
2019-06-15T12:14:52.044Z,10.78
2019-06-15T12:17:22.550Z,11.80
2019-06-15T12:19:53.166Z,11.65
2019-06-15T12:22:24.130Z,9.23
2019-06-15T12:24:54.562Z,13.03
2019-06-15T12:27:25.077Z,10.13
2019-06-15T12:29:55.578Z,12.63
2019-06-15T12:32:26.028Z,7.17
2019-06-15T12:34:56.455Z,9.55
2019-06-15T12:37:26.641Z,9.55
2019-06-15T12:39:57.340Z,11.60
2019-06-15T12:42:27.601Z,12.93
2019-06-15T12:44:57.951Z,10.82
2019-06-15T12:47:28.433Z,9.43
2019-06-15T12:49:58.772Z,9.13
2019-06-15T12:52:28.949Z,8.78
2019-06-15T12:54:59.288Z,9.58
2019-06-15T12:57:29.593Z,11.57
2019-06-15T13:00:00.016Z,10.28
2019-06-15T13:02:30.586Z,11.60
2019-06-15T13:05:01.109Z,13.10
2019-06-15T13:07:31.505Z,13.45
2019-06-15T13:10:01.871Z,12.20
2019-06-15T13:12:32.245Z,9.63
2019-06-15T13:15:02.765Z,9.63
2019-06-15T13:20:22.368Z,12.33
2019-06-15T13:22:52.224Z,8.33
2019-06-15T13:25:22.473Z,9.53
2019-06-15T13:27:52.973Z,11.43
2019-06-15T13:30:23.611Z,12.45
2019-06-15T13:32:54.135Z,13.55
2019-06-15T13:35:24.652Z,11.18
2019-06-15T13:37:55.039Z,15.35
2019-06-15T13:40:25.533Z,10.75
2019-06-15T13:42:56.757Z,11.10
2019-06-15T13:45:27.481Z,9.03
2019-06-15T13:47:57.872Z,13.98
2019-06-15T13:50:28.453Z,9.28
2019-06-15T13:52:59.045Z,9.78
2019-06-15T13:55:29.599Z,10.20
2019-06-15T13:58:00.121Z,16.75
2019-06-15T14:00:30.717Z,16.15
2019-06-15T14:03:01.186Z,10.08
2019-06-15T14:05:31.738Z,10.32
2019-06-15T14:08:02.096Z,12.53
2019-06-15T14:10:32.639Z,15.72
2019-06-15T14:13:02.375Z,10.45
2019-06-15T14:15:32.745Z,9.85
2019-06-15T14:18:03.277Z,11.15
2019-06-15T14:20:33.673Z,10.90
2019-06-15T14:23:04.048Z,12.35
2019-06-15T14:25:34.613Z,11.78
2019-06-15T14:28:05.077Z,14.73
2019-06-15T14:30:35.602Z,13.70
2019-06-15T14:33:05.908Z,10.00
2019-06-15T14:35:36.815Z,11.83
2019-06-15T14:38:07.177Z,12.50
2019-06-15T14:40:37.678Z,9.90
2019-06-15T14:43:07.989Z,11.60
2019-06-15T14:45:39.020Z,11.65
2019-06-15T14:48:08.957Z,14.83
2019-06-15T14:50:39.267Z,11.38
2019-06-15T14:53:09.628Z,11.35
2019-06-15T14:55:39.924Z,14.65
2019-06-15T14:58:10.378Z,12.18
2019-06-15T15:00:40.845Z,11.30
2019-06-15T15:03:11.577Z,15.08
2019-06-15T15:05:41.993Z,12.60
2019-06-15T15:08:12.481Z,13.22
2019-06-15T15:10:42.990Z,14.80
2019-06-15T15:13:13.394Z,13.00
2019-06-15T15:15:43.980Z,11.85
2019-06-15T15:18:16.280Z,11.78
2019-06-15T15:20:45.152Z,14.30
2019-06-15T15:23:15.513Z,11.38
2019-06-15T15:25:47.174Z,15.83
2019-06-15T15:28:15.785Z,17.55
2019-06-15T15:30:46.131Z,11.45
2019-06-15T15:33:16.516Z,14.43
2019-06-15T15:35:47.113Z,12.37
2019-06-15T15:38:17.519Z,11.90
2019-06-15T15:40:47.985Z,12.07
2019-06-15T15:43:18.429Z,11.68
2019-06-15T15:45:48.917Z,14.33
2019-06-15T15:48:21.044Z,13.25
2019-06-15T15:50:49.812Z,13.40
2019-06-15T15:53:20.277Z,17.27
2019-06-15T15:55:50.791Z,17.00
2019-06-15T15:58:21.091Z,12.37
2019-06-15T16:00:51.604Z,17.32
2019-06-15T16:03:22.290Z,14.25
2019-06-15T16:05:52.857Z,36.53
2019-06-15T16:08:25.105Z,16.85
2019-06-15T16:10:56.463Z,17.40
2019-06-15T16:13:26.744Z,13.15
2019-06-15T16:15:54.530Z,12.80
2019-06-15T16:18:24.844Z,15.60
2019-06-15T16:20:55.516Z,16.10
2019-06-15T16:23:26.029Z,19.48
2019-06-15T16:25:56.896Z,17.60
2019-06-15T16:28:27.271Z,24.47
2019-06-15T16:31:06.557Z,17.13
2019-06-15T16:33:32.500Z,15.50
2019-06-15T16:36:03.030Z,16.37
2019-06-15T16:38:33.458Z,13.53
2019-06-15T16:41:03.962Z,10.13
2019-06-15T16:43:36.891Z,8.07
2019-06-15T16:46:06.419Z,13.13
2019-06-15T16:48:36.421Z,11.13
2019-06-15T16:51:06.809Z,10.07
2019-06-15T16:53:37.451Z,6.70
2019-06-15T16:56:08.101Z,8.90
2019-06-15T16:58:38.410Z,14.67
2019-06-15T17:01:08.924Z,15.43
2019-06-15T17:03:39.457Z,17.23
2019-06-15T17:06:10.074Z,12.47
2019-06-15T17:08:40.560Z,20.07
2019-06-15T17:11:11.218Z,17.33
2019-06-15T17:13:41.713Z,17.27
2019-06-15T17:16:12.162Z,23.33
2019-06-15T17:18:42.634Z,11.90
2019-06-15T17:21:13.175Z,14.37
2019-06-15T17:23:46.529Z,15.00
2019-06-15T17:26:16.666Z,11.40
2019-06-15T17:28:46.010Z,14.17
2019-06-15T17:31:16.620Z,13.77
2019-06-15T17:33:46.937Z,17.53
2019-06-15T17:36:16.460Z,19.27
2019-06-15T17:38:46.860Z,20.57
2019-06-15T17:41:17.463Z,19.80
2019-06-15T17:43:47.973Z,16.70
2019-06-15T17:46:18.535Z,15.77
2019-06-15T17:48:49.339Z,14.43
2019-06-15T17:51:20.128Z,14.93
2019-06-15T17:53:50.557Z,17.57
2019-06-15T17:56:21.132Z,14.67
2019-06-15T17:58:51.605Z,14.17
2019-06-15T18:01:21.863Z,13.27
2019-06-15T18:03:57.227Z,11.93
2019-06-15T18:06:22.693Z,11.60
2019-06-15T18:08:53.006Z,16.03
2019-06-15T18:11:26.001Z,15.33
2019-06-15T18:13:56.449Z,13.87
2019-06-15T18:16:28.052Z,10.77
2019-06-15T18:18:55.259Z,12.93
2019-06-15T18:21:26.836Z,18.03
2019-06-15T18:23:58.200Z,15.03
2019-06-15T18:26:28.837Z,11.63
2019-06-15T18:28:59.218Z,14.83
2019-06-15T18:31:29.780Z,16.77
2019-06-15T18:34:09.537Z,14.40
2019-06-15T18:36:30.924Z,14.17
2019-06-15T18:39:01.333Z,12.50
2019-06-15T18:41:31.896Z,16.47
2019-06-15T18:44:02.434Z,17.77
2019-06-15T18:46:32.921Z,18.43
2019-06-15T18:49:03.450Z,13.37
2019-06-15T18:51:33.984Z,16.30
2019-06-15T18:54:06.579Z,13.00
2019-06-15T18:56:36.309Z,16.63
2019-06-15T18:59:07.325Z,15.67
2019-06-15T19:01:37.534Z,12.70
2019-06-15T19:04:08.151Z,14.63
2019-06-15T19:06:37.198Z,11.23
2019-06-15T19:09:09.432Z,14.93
2019-06-15T19:11:39.959Z,13.13
2019-06-15T19:14:10.367Z,10.90
2019-06-15T19:16:40.836Z,12.50
2019-06-15T19:19:11.324Z,11.73
2019-06-15T19:21:42.169Z,13.63
2019-06-15T19:24:12.597Z,12.00
2019-06-15T19:26:43.011Z,11.57
2019-06-15T19:29:13.550Z,13.23
2019-06-15T19:31:46.657Z,9.50
2019-06-15T19:34:16.669Z,10.83
2019-06-15T19:36:46.860Z,7.30
2019-06-15T19:39:16.520Z,10.57
2019-06-15T19:41:46.349Z,9.47
2019-06-15T19:44:16.867Z,10.07
2019-06-15T19:46:47.837Z,5.57
2019-06-15T19:49:18.129Z,8.53
2019-06-15T19:51:50.013Z,6.43
2019-06-15T19:54:20.230Z,8.83
2019-06-15T19:56:49.847Z,8.90
2019-06-15T19:59:19.593Z,7.93
2019-06-15T20:01:49.976Z,5.30
2019-06-15T20:04:20.343Z,7.27
2019-06-15T20:06:50.715Z,6.43
2019-06-15T20:09:21.247Z,8.53
2019-06-15T20:11:52.583Z,7.63
2019-06-15T20:14:23.197Z,6.70
2019-06-15T20:16:56.013Z,7.00
2019-06-15T20:19:27.047Z,6.30
2019-06-15T20:21:53.955Z,6.63
2019-06-15T20:24:27.000Z,8.37
2019-06-15T20:26:56.200Z,9.37
2019-06-15T20:29:27.086Z,8.00
2019-06-15T20:31:57.095Z,8.67
2019-06-15T20:34:26.168Z,8.57
2019-06-15T20:36:56.724Z,9.30
2019-06-15T20:39:27.051Z,10.87
2019-06-15T20:41:57.561Z,11.23
2019-06-15T20:44:27.892Z,14.17
2019-06-15T20:46:58.207Z,11.97
2019-06-15T20:49:28.639Z,12.90
2019-06-15T20:51:59.024Z,13.37
2019-06-15T20:54:29.573Z,12.30
2019-06-15T20:57:00.084Z,15.17
2019-06-15T20:59:30.686Z,16.23
2019-06-15T21:02:00.988Z,14.43
2019-06-15T21:04:31.622Z,12.63
2019-06-15T21:07:02.092Z,14.33
2019-06-15T21:09:32.579Z,13.30
2019-06-15T21:12:02.965Z,14.80
2019-06-15T21:14:33.421Z,13.57
2019-06-15T21:17:06.548Z,13.03
2019-06-15T21:19:36.075Z,14.30
2019-06-15T21:22:06.334Z,15.27
2019-06-15T21:24:37.185Z,12.43
2019-06-15T21:27:06.294Z,15.37
2019-06-15T21:29:37.041Z,16.40
2019-06-15T21:32:06.573Z,15.23
2019-06-15T21:34:36.415Z,30.50
2019-06-15T21:37:06.909Z,16.00
2019-06-15T21:39:37.344Z,13.60
2019-06-15T21:42:07.868Z,13.33
2019-06-15T21:44:38.358Z,16.97
2019-06-15T21:47:08.977Z,13.63
2019-06-15T21:49:39.637Z,14.93
2019-06-15T21:52:10.426Z,13.07
2019-06-15T21:54:40.981Z,15.27
2019-06-15T21:57:11.601Z,13.80
2019-06-15T21:59:42.249Z,14.70
2019-06-15T22:02:12.849Z,13.63
2019-06-15T22:04:43.284Z,14.57
2019-06-15T22:07:13.691Z,14.53
2019-06-15T22:09:46.733Z,16.37
2019-06-15T22:12:16.329Z,16.60
2019-06-15T22:14:46.633Z,13.83
2019-06-15T22:17:16.809Z,12.43
2019-06-15T22:19:46.659Z,19.50
2019-06-15T22:22:16.556Z,14.37
2019-06-15T22:24:47.000Z,11.87
2019-06-15T22:27:17.265Z,14.77
2019-06-15T22:29:47.681Z,15.87
2019-06-15T22:32:18.173Z,17.13
2019-06-15T22:34:48.455Z,15.40
2019-06-15T22:37:18.776Z,15.23
2019-06-15T22:39:49.163Z,17.43
2019-06-15T22:42:19.385Z,13.90
2019-06-15T22:44:49.708Z,18.57
2019-06-15T22:47:19.929Z,17.50
2019-06-15T22:49:50.330Z,13.83
2019-06-15T22:52:20.681Z,12.97
2019-06-15T22:54:50.944Z,15.43
2019-06-15T22:57:21.367Z,15.37
2019-06-15T22:59:51.508Z,17.83
2019-06-15T23:02:21.324Z,14.03
2019-06-15T23:04:51.480Z,17.03
2019-06-15T23:07:21.705Z,19.37
2019-06-15T23:09:52.012Z,15.73
2019-06-15T23:12:22.604Z,14.47
2019-06-15T23:14:52.929Z,18.60
2019-06-15T23:17:23.306Z,12.90
2019-06-15T23:19:53.600Z,14.43
2019-06-15T23:22:23.911Z,13.93
2019-06-15T23:24:56.250Z,14.73
2019-06-15T23:27:24.645Z,13.40
2019-06-15T23:29:57.067Z,14.03
2019-06-15T23:32:25.410Z,13.83
2019-06-15T23:34:56.485Z,13.37
2019-06-15T23:37:26.642Z,11.67
2019-06-15T23:40:01.556Z,14.67
2019-06-15T23:42:31.954Z,13.43
2019-06-15T23:45:02.388Z,15.00
2019-06-15T23:47:32.687Z,14.97
2019-06-15T23:50:03.143Z,13.87
2019-06-15T23:52:36.149Z,16.23
2019-06-15T23:55:03.927Z,13.63
2019-06-15T23:57:36.769Z,14.60
